createdAt,value
2022-12-27T00:00:33.566Z,98509.67
2022-12-27T00:05:35.289Z,98516.83
2022-12-27T00:10:37.256Z,98518.16
2022-12-27T00:15:38.960Z,98512.85
2022-12-27T00:20:40.667Z,98503.95
2022-12-27T00:25:42.542Z,98488.58
2022-12-27T00:30:44.306Z,98472.06
2022-12-27T00:35:45.957Z,98482.67
2022-12-27T00:40:48.083Z,98481.13
2022-12-27T00:45:50.435Z,98473.24
2022-12-27T00:50:58.716Z,98480.00
2022-12-27T00:56:01.165Z,98481.59
2022-12-27T01:01:15.575Z,98492.43
2022-12-27T01:06:21.485Z,98495.98
2022-12-27T01:11:24.433Z,98509.08
2022-12-27T01:16:28.346Z,98524.98
2022-12-27T01:21:31.043Z,98533.23
2022-12-27T01:26:32.798Z,98567.82
2022-12-27T01:31:35.618Z,98588.55
2022-12-27T01:36:37.530Z,98595.36
2022-12-27T01:42:01.731Z,98600.45
2022-12-27T01:47:05.703Z,98603.41
2022-12-27T01:52:11.271Z,98605.45
2022-12-27T01:57:13.019Z,98615.05
2022-12-27T02:02:15.089Z,98623.20
2022-12-27T02:07:18.597Z,98625.20
2022-12-27T02:12:21.260Z,98627.88
2022-12-27T02:17:27.132Z,98632.40
2022-12-27T02:23:05.754Z,98633.23
2022-12-27T02:28:30.522Z,98641.77
2022-12-27T02:33:38.956Z,98646.68
2022-12-27T02:38:45.237Z,98649.07
2022-12-27T02:44:06.298Z,98658.19
2022-12-27T02:49:53.753Z,98661.86
2022-12-27T02:55:08.295Z,98671.08
2022-12-27T03:00:39.151Z,98676.78
2022-12-27T03:06:17.866Z,98693.74
2022-12-27T03:11:38.885Z,98708.55
2022-12-27T03:16:55.756Z,98722.09
2022-12-27T03:22:17.297Z,98726.48
2022-12-27T03:27:32.267Z,98734.24
2022-12-27T03:32:58.405Z,98750.05
2022-12-27T03:38:05.257Z,61660.59
2022-12-27T03:43:16.188Z,19757.70
2022-12-27T03:48:22.746Z,98806.64
2022-12-27T03:53:38.367Z,98823.93
2022-12-27T03:58:40.273Z,98831.46
2022-12-27T04:03:42.198Z,98834.09
2022-12-27T04:09:02.758Z,98832.83
2022-12-27T04:14:23.153Z,98836.48
2022-12-27T04:19:43.613Z,98843.09
2022-12-27T04:25:04.266Z,98849.80
2022-12-27T04:30:25.332Z,98856.64
2022-12-27T04:35:27.189Z,98866.18
2022-12-27T04:40:47.655Z,98886.88
2022-12-27T04:46:08.371Z,98899.58
2022-12-27T04:51:28.969Z,98907.59
2022-12-27T04:56:30.680Z,98916.14
2022-12-27T05:01:50.975Z,98912.27
2022-12-27T05:06:53.515Z,98928.30
2022-12-27T05:12:14.025Z,98941.85
2022-12-27T05:17:16.001Z,98967.71
2022-12-27T05:22:36.452Z,98981.23
2022-12-27T05:27:38.154Z,98976.31
2022-12-27T05:32:39.805Z,98975.44
2022-12-27T05:37:41.492Z,98974.73
2022-12-27T05:42:43.205Z,98992.41
2022-12-27T05:47:45.108Z,98994.91
2022-12-27T05:52:46.968Z,99004.65
2022-12-27T05:57:48.773Z,99019.77
2022-12-27T06:02:50.583Z,99037.17
2022-12-27T06:07:52.462Z,99050.25
2022-12-27T06:12:54.138Z,99063.48
2022-12-27T06:17:56.153Z,99085.18
2022-12-27T06:23:00.232Z,99097.17
2022-12-27T06:28:02.064Z,99114.41
2022-12-27T06:33:03.865Z,99131.30
2022-12-27T06:38:05.626Z,99132.94
2022-12-27T06:43:07.491Z,99142.20
2022-12-27T06:48:09.302Z,99157.21
2022-12-27T06:53:11.039Z,99169.73
2022-12-27T06:58:13.721Z,99186.16
2022-12-27T07:03:15.452Z,99193.21
2022-12-27T07:08:17.371Z,99207.11
2022-12-27T07:13:19.491Z,99210.86
2022-12-27T07:18:21.208Z,99223.80
2022-12-27T07:23:22.939Z,99233.64
2022-12-27T07:28:25.230Z,99238.33
2022-12-27T07:33:26.926Z,99256.09
2022-12-27T07:38:29.022Z,99269.48
2022-12-27T07:43:33.723Z,99275.48
2022-12-27T07:48:36.490Z,99292.56
2022-12-27T07:53:38.211Z,99296.31
2022-12-27T07:58:42.508Z,99305.88
2022-12-27T08:03:44.807Z,99307.17
2022-12-27T08:08:47.417Z,99314.71
2022-12-27T08:13:49.375Z,99329.56
2022-12-27T08:18:53.131Z,99336.59
2022-12-27T08:23:54.928Z,99339.80
2022-12-27T08:28:56.740Z,99348.86
2022-12-27T08:33:58.925Z,99357.34
2022-12-27T08:39:00.860Z,99363.76
2022-12-27T08:44:02.577Z,99369.52
2022-12-27T08:49:05.321Z,99371.59
2022-12-27T08:54:07.252Z,99372.63
2022-12-27T08:59:08.928Z,99392.04
2022-12-27T09:04:10.692Z,99401.77
2022-12-27T09:09:13.646Z,99404.66
2022-12-27T09:14:15.402Z,99408.13
2022-12-27T09:19:17.145Z,99412.38
2022-12-27T09:24:19.002Z,99409.80
2022-12-27T09:29:21.196Z,99411.41
2022-12-27T09:34:22.887Z,99409.66
2022-12-27T09:39:24.554Z,99403.85
2022-12-27T09:44:47.575Z,99402.32
2022-12-27T09:49:55.208Z,99395.73
2022-12-27T09:55:05.385Z,99401.18
2022-12-27T10:00:35.018Z,99397.70
2022-12-27T10:05:39.648Z,99396.52
2022-12-27T10:10:57.032Z,19878.56
2022-12-27T10:16:27.867Z,-1.00
2022-12-27T10:21:34.368Z,-1.00
2022-12-27T10:26:38.669Z,-1.00
2022-12-27T10:31:43.039Z,-1.00
2022-12-27T10:36:45.463Z,-1.00
2022-12-27T10:42:10.079Z,-1.00
2022-12-27T10:47:11.807Z,-1.00
2022-12-27T10:52:21.568Z,-1.00
2022-12-27T10:57:33.463Z,-1.00
2022-12-27T11:02:35.533Z,-1.00
2022-12-27T11:07:37.782Z,-1.00
2022-12-27T11:12:39.461Z,-1.00
2022-12-27T11:17:50.258Z,-1.00
2022-12-27T11:23:10.193Z,-1.00
2022-12-27T11:28:34.363Z,-1.00
2022-12-27T11:33:41.176Z,-1.00
2022-12-27T11:38:45.082Z,-1.00
2022-12-27T11:44:06.008Z,-1.00
2022-12-27T11:49:17.912Z,-1.00
2022-12-27T11:54:41.501Z,-1.00
2022-12-27T12:00:06.689Z,-1.00
2022-12-27T12:05:33.439Z,-1.00
2022-12-27T12:10:44.244Z,-1.00
2022-12-27T12:16:17.698Z,-1.00
2022-12-27T12:21:41.243Z,-1.00
2022-12-27T12:27:08.116Z,-1.00
2022-12-27T12:32:45.552Z,-1.00
2022-12-27T12:37:57.092Z,-1.00
2022-12-27T12:43:16.999Z,-1.00
2022-12-27T12:48:24.510Z,-1.00
2022-12-27T12:53:49.018Z,-1.00
2022-12-27T12:59:13.260Z,-1.00
2022-12-27T13:04:49.772Z,-1.00
2022-12-27T13:10:00.698Z,-1.00
2022-12-27T13:15:17.975Z,-1.00
2022-12-27T13:20:28.557Z,-1.00
2022-12-27T13:25:58.785Z,-1.00
2022-12-27T13:31:07.752Z,-1.00
2022-12-27T13:36:24.440Z,-1.00
2022-12-27T13:41:30.567Z,-1.00
2022-12-27T13:47:18.563Z,-1.00
2022-12-27T13:52:46.505Z,-1.00
2022-12-27T13:58:08.993Z,-1.00
2022-12-27T14:03:43.456Z,-1.00
2022-12-27T14:09:10.230Z,-1.00
2022-12-27T14:14:16.723Z,-1.00
2022-12-27T14:19:41.633Z,-1.00
2022-12-27T14:25:14.793Z,-1.00
2022-12-27T14:30:38.527Z,-1.00
2022-12-27T14:36:17.898Z,-1.00
2022-12-27T14:41:54.062Z,-1.00
2022-12-27T14:47:18.099Z,-1.00
2022-12-27T14:52:44.239Z,-1.00
2022-12-27T14:57:55.566Z,-1.00
2022-12-27T15:03:17.835Z,-1.00
2022-12-27T15:08:40.808Z,-1.00
2022-12-27T15:14:17.679Z,-1.00
2022-12-27T15:19:40.338Z,-1.00
2022-12-27T15:25:06.095Z,-1.00
2022-12-27T15:30:20.961Z,-1.00
2022-12-27T15:35:33.533Z,-1.00
2022-12-27T15:40:35.156Z,-1.00
2022-12-27T15:46:08.119Z,-1.00
2022-12-27T15:51:23.367Z,-1.00
2022-12-27T15:57:03.630Z,-1.00
2022-12-27T16:02:17.789Z,-1.00
2022-12-27T16:07:52.197Z,-1.00
2022-12-27T16:12:55.933Z,-1.00
2022-12-27T16:17:57.738Z,-1.00
2022-12-27T16:23:02.681Z,-1.00
2022-12-27T16:28:16.260Z,-1.00
2022-12-27T16:33:27.156Z,-1.00
2022-12-27T16:38:31.942Z,-1.00
2022-12-27T16:43:49.151Z,-1.00
2022-12-27T16:49:34.371Z,-1.00
2022-12-27T16:55:20.453Z,-1.00
2022-12-27T17:00:42.481Z,-1.00
2022-12-27T17:06:21.775Z,-1.00
2022-12-27T17:11:39.032Z,-1.00
2022-12-27T17:16:46.325Z,-1.00
2022-12-27T17:21:56.731Z,-1.00
2022-12-27T17:27:16.423Z,-1.00
2022-12-27T17:32:39.967Z,-1.00
2022-12-27T17:38:06.395Z,-1.00
2022-12-27T17:43:56.738Z,-1.00
2022-12-27T17:48:58.807Z,-1.00
2022-12-27T17:54:42.790Z,-1.00
2022-12-27T17:59:50.306Z,-1.00
2022-12-27T18:04:56.186Z,-1.00
2022-12-27T18:10:05.959Z,-1.00
2022-12-27T18:15:26.173Z,-1.00
2022-12-27T18:20:28.085Z,-1.00
2022-12-27T18:25:32.714Z,-1.00
2022-12-27T18:30:41.211Z,-1.00
2022-12-27T18:35:48.156Z,-1.00
2022-12-27T18:41:05.611Z,-1.00
2022-12-27T18:46:12.516Z,-1.00
2022-12-27T18:51:15.071Z,-1.00
2022-12-27T18:56:32.856Z,-1.00
2022-12-27T19:01:41.948Z,-1.00
2022-12-27T19:06:55.999Z,-1.00
2022-12-27T19:12:01.793Z,-1.00
2022-12-27T19:17:10.628Z,-1.00
2022-12-27T19:22:36.857Z,-1.00
2022-12-27T19:27:38.694Z,-1.00
2022-12-27T19:32:40.430Z,-1.00
2022-12-27T19:37:42.111Z,-1.00
2022-12-27T19:42:45.532Z,-1.00
2022-12-27T19:47:50.671Z,-1.00
2022-12-27T19:52:54.056Z,-1.00
2022-12-27T19:57:57.069Z,-1.00
2022-12-27T20:02:58.955Z,-1.00
2022-12-27T20:08:00.809Z,-1.00
2022-12-27T20:13:02.620Z,-1.00
2022-12-27T20:18:04.299Z,-1.00
2022-12-27T20:23:06.058Z,-1.00
2022-12-27T20:28:08.274Z,-1.00
2022-12-27T20:33:10.403Z,-1.00
2022-12-27T20:38:12.643Z,-1.00
2022-12-27T20:43:14.777Z,-1.00
2022-12-27T20:48:16.570Z,-1.00
2022-12-27T20:53:18.498Z,-1.00
2022-12-27T20:58:20.208Z,-1.00
2022-12-27T21:03:22.114Z,-1.00
2022-12-27T21:08:23.820Z,-1.00
2022-12-27T21:15:53.908Z,-1.00
2022-12-27T21:21:19.716Z,-1.00
2022-12-27T21:26:25.360Z,-1.00
2022-12-27T21:31:27.896Z,-1.00
2022-12-27T21:36:32.144Z,-1.00
2022-12-27T21:41:36.251Z,-1.00
2022-12-27T21:46:40.671Z,-1.00
2022-12-27T21:51:44.056Z,-1.00
2022-12-27T21:56:46.213Z,-1.00
2022-12-27T22:01:51.416Z,-1.00
2022-12-27T22:06:54.334Z,-1.00
2022-12-27T22:11:56.067Z,-1.00
2022-12-27T22:17:00.201Z,-1.00
2022-12-27T22:22:01.900Z,-1.00
2022-12-27T22:27:03.701Z,-1.00
2022-12-27T22:32:06.109Z,-1.00
2022-12-27T22:37:07.820Z,-1.00
2022-12-27T22:42:09.492Z,-1.00
2022-12-27T22:47:27.946Z,-1.00
2022-12-27T22:52:30.199Z,-1.00
2022-12-27T22:57:31.867Z,-1.00
2022-12-27T23:02:33.658Z,-1.00
2022-12-27T23:08:05.653Z,-1.00
2022-12-27T23:12:57.146Z,-1.00
2022-12-27T23:17:59.067Z,-1.00
2022-12-27T23:23:00.736Z,-1.00
2022-12-27T23:28:02.406Z,-1.00
2022-12-27T23:33:04.232Z,-1.00
2022-12-27T23:38:06.159Z,-1.00
2022-12-27T23:43:42.030Z,-1.00
2022-12-27T23:48:29.473Z,-1.00
2022-12-27T23:53:31.200Z,-1.00
2022-12-27T23:58:33.518Z,-1.00
